Berlin-dahlem, Germany

11:09 PM CET on December 08, 2016 (GMT +0100)
Tegel | | Change Station

Elev 121 ft 52.56 °N, 13.31 °E | Updated 19 minutes ago

Overcast
Overcast
46 °F
Feels Like 40 °F
N
14
Wind Variable Wind from WSW

Today
High -- | Low -- °F
--% Chance of Precip.
Yesterday
High -- | Low -- °F
Precip. -- in
Pressure 30.21 in
Visibility -9999.0 miles
Clouds
Windchill 40 °F
Dew Point 34 °F
Humidity 62%
Rainfall 0.00 in
Snow Depth Not available.
8:04 AM 3:53 PM
Waxing Gibbous, 67% visible
METAR EDDT 082150Z 24012KT CAVOK 08/01 Q1023 NOSIG
Pressure 30.21 in
Visibility -9999.0 miles
Clouds
Windchill 40 °F
Dew Point 34 °F
Humidity 62%
Rainfall 0.00 in
Snow Depth Not available.
8:04 AM 3:53 PM
Waxing Gibbous, 67% visible
METAR EDDT 082150Z 24012KT CAVOK 08/01 Q1023 NOSIG

10-Day Weather Forecast

×

Almanac

Astronomy

Dec. 08, 2016 Rise Set
Actual Time
Civil Twilight
Nautical Twilight
Astronomical Twilight
Moon
Length of Visible Light
Length of Day
Tomorrow will be .
, % of the Moon is Illuminated

Today's Extremes

Country Highs Country Lows

Community

WunderPhotos

Upload Photos

1,956,277 photos uploaded!

WunderBlog® & News

Nearby

Air Quality

  Air Quality AQ Index Pollutant
Not available.

Snow Depth

Station Depth Elevation

Earthquake Activity

City Distance Mag. Time & Date
Minimum magnitude displayed is 2.5.

Coastal Water Temperatures

Place Temperature

Stations

Nearby Weather Stations

Station Location Temp. Windchill Dew Point Humidity Wind Precip. Elev Updated Type